createdAt,value
2022-09-06T00:00:01.638Z,100249.91
2022-09-06T00:01:14.864Z,100246.94
2022-09-06T00:02:16.506Z,100247.31
2022-09-06T00:03:18.596Z,100253.38
2022-09-06T00:04:20.129Z,100249.69
2022-09-06T00:05:21.769Z,100251.72
2022-09-06T00:06:23.302Z,100249.22
2022-09-06T00:07:24.979Z,100246.72
2022-09-06T00:08:26.680Z,100246.25
2022-09-06T00:09:28.241Z,100244.56
2022-09-06T00:10:30.195Z,100246.97
2022-09-06T00:11:31.709Z,100239.59
2022-09-06T00:12:33.313Z,100240.44
2022-09-06T00:13:35.112Z,100235.94
2022-09-06T00:14:36.611Z,100237.94
2022-09-06T00:15:38.170Z,100247.31
2022-09-06T00:16:40.683Z,100240.31
2022-09-06T00:17:44.639Z,100242.81
2022-09-06T00:18:46.261Z,100241.16
2022-09-06T00:19:47.818Z,100240.31
2022-09-06T00:20:49.347Z,100240.31
2022-09-06T00:21:50.867Z,100241.16
2022-09-06T00:22:52.378Z,100241.16
2022-09-06T00:23:53.975Z,100238.66
2022-09-06T00:24:55.463Z,100235.31
2022-09-06T00:26:03.875Z,100240.06
2022-09-06T00:27:05.786Z,100242.47
2022-09-06T00:28:07.503Z,100246.50
2022-09-06T00:29:08.998Z,100232.25
2022-09-06T00:30:10.919Z,100237.94
2022-09-06T00:31:13.539Z,100238.31
2022-09-06T00:32:15.110Z,100242.34
2022-09-06T00:33:16.634Z,100247.22
2022-09-06T00:34:18.120Z,100240.31
2022-09-06T00:35:19.750Z,100241.53
2022-09-06T00:36:21.400Z,100240.69
2022-09-06T00:37:22.895Z,100241.88
2022-09-06T00:38:24.434Z,100243.53
2022-09-06T00:39:25.965Z,100237.00
2022-09-06T00:40:29.434Z,100235.81
2022-09-06T00:41:31.047Z,100244.84
2022-09-06T00:42:32.527Z,100243.19
2022-09-06T00:43:34.075Z,100244.00
2022-09-06T00:44:35.566Z,100241.97
2022-09-06T00:45:37.046Z,100239.13
2022-09-06T00:46:39.149Z,100239.97
2022-09-06T00:47:41.572Z,100237.13
2022-09-06T00:48:43.099Z,100234.28
2022-09-06T00:49:45.440Z,100238.78
2022-09-06T00:50:47.001Z,100235.09
2022-09-06T00:51:48.555Z,100240.78
2022-09-06T00:52:50.199Z,100235.09
2022-09-06T00:53:51.745Z,100249.34
2022-09-06T00:54:53.251Z,100243.66
2022-09-06T00:55:54.730Z,100246.50
2022-09-06T00:56:56.311Z,100248.50
2022-09-06T00:57:57.834Z,100251.34
2022-09-06T00:59:00.259Z,100253.38
2022-09-06T01:00:02.229Z,100259.06
2022-09-06T01:01:03.870Z,100246.13
2022-09-06T01:02:05.621Z,100256.22
2022-09-06T01:03:07.307Z,100257.06
2022-09-06T01:04:08.884Z,100260.25
2022-09-06T01:05:10.693Z,100270.47
2022-09-06T01:06:12.185Z,100269.63
2022-09-06T01:07:13.758Z,100273.31
2022-09-06T01:08:16.879Z,100273.31
2022-09-06T01:09:21.390Z,100277.72
2022-09-06T01:10:22.855Z,100281.38
2022-09-06T01:11:28.936Z,100293.97
2022-09-06T01:12:34.269Z,100289.09
2022-09-06T01:13:44.654Z,100314.75
2022-09-06T01:14:56.791Z,100356.84
2022-09-06T01:16:08.800Z,100404.66
2022-09-06T01:17:16.934Z,100394.53
2022-09-06T01:18:27.546Z,100387.84
2022-09-06T01:19:47.523Z,100400.75
2022-09-06T01:20:58.227Z,100398.25
2022-09-06T01:22:08.003Z,100394.94
2022-09-06T01:23:24.736Z,100382.34
2022-09-06T01:24:26.220Z,100390.06
2022-09-06T01:25:36.917Z,100388.03
2022-09-06T01:26:48.362Z,100398.25
2022-09-06T01:28:25.072Z,100391.25
2022-09-06T01:29:28.401Z,100397.78
2022-09-06T01:30:29.929Z,100412.34
2022-09-06T01:31:33.185Z,100401.44
2022-09-06T01:32:36.931Z,100394.22
2022-09-06T01:33:41.241Z,100394.22
2022-09-06T01:34:44.312Z,100391.38
2022-09-06T01:35:58.601Z,100394.38
2022-09-06T01:37:10.586Z,100400.91
2022-09-06T01:38:12.558Z,100400.22
2022-09-06T01:39:29.965Z,100382.44
2022-09-06T01:40:35.635Z,100399.31
2022-09-06T01:41:37.182Z,100390.88
2022-09-06T01:42:38.800Z,100388.63
2022-09-06T01:43:41.018Z,100383.09
2022-09-06T01:44:46.147Z,100373.47
2022-09-06T01:45:56.633Z,100376.78
2022-09-06T01:47:05.880Z,100379.44
2022-09-06T01:48:10.087Z,100378.25
2022-09-06T01:49:20.555Z,100371.38
2022-09-06T01:50:42.342Z,100360.81
2022-09-06T01:51:46.923Z,100357.22
2022-09-06T01:52:57.637Z,100356.03
2022-09-06T01:53:59.183Z,100360.56
2022-09-06T01:55:07.156Z,100356.53
2022-09-06T01:56:08.738Z,100359.00
2022-09-06T01:57:13.058Z,100357.81
2022-09-06T01:58:14.524Z,100355.47
2022-09-06T01:59:25.115Z,100344.91
2022-09-06T02:00:29.467Z,100328.13
2022-09-06T02:01:52.205Z,100321.28
2022-09-06T02:03:00.032Z,100304.88
2022-09-06T02:04:21.318Z,100297.16
2022-09-06T02:05:25.206Z,100287.78
2022-09-06T02:06:27.913Z,100283.75
2022-09-06T02:07:29.629Z,100286.59
2022-09-06T02:08:32.260Z,100291.47
2022-09-06T02:09:35.657Z,100300.84
2022-09-06T02:10:41.458Z,100295.13
2022-09-06T02:11:53.885Z,100299.19
2022-09-06T02:12:55.982Z,100300.00
2022-09-06T02:13:58.731Z,100309.75
2022-09-06T02:15:01.709Z,100305.72
2022-09-06T02:16:04.558Z,100309.75
2022-09-06T02:17:06.858Z,100312.59
2022-09-06T02:18:16.451Z,100321.97
2022-09-06T02:19:19.613Z,100331.72
2022-09-06T02:20:22.776Z,100334.56
2022-09-06T02:21:26.203Z,100332.53
2022-09-06T02:22:28.321Z,100328.03
2022-09-06T02:23:31.299Z,100329.22
2022-09-06T02:24:33.136Z,100327.19
2022-09-06T02:25:38.641Z,100336.47
2022-09-06T02:26:40.734Z,100335.63
2022-09-06T02:27:42.298Z,100334.81
2022-09-06T02:28:43.788Z,100322.56
2022-09-06T02:29:45.305Z,100325.53
2022-09-06T02:30:49.137Z,100334.31
2022-09-06T02:31:51.253Z,100338.38
2022-09-06T02:32:57.688Z,100333.84
2022-09-06T02:33:59.175Z,100338.22
2022-09-06T02:35:02.408Z,100331.22
2022-09-06T02:36:05.740Z,100341.44
2022-09-06T02:37:07.404Z,100338.09
2022-09-06T02:38:08.925Z,100329.56
2022-09-06T02:39:10.653Z,100327.91
2022-09-06T02:40:12.375Z,100315.31
2022-09-06T02:41:28.979Z,100312.47
2022-09-06T02:42:30.491Z,100303.56
2022-09-06T02:43:32.163Z,100304.41
2022-09-06T02:44:33.699Z,100303.56
2022-09-06T02:45:35.402Z,100307.25
2022-09-06T02:46:36.963Z,100308.44
2022-09-06T02:47:38.528Z,100310.09
2022-09-06T02:48:40.078Z,100311.75
2022-09-06T02:49:41.569Z,100303.56
2022-09-06T02:50:43.089Z,100297.88
2022-09-06T02:51:44.679Z,100285.66
2022-09-06T02:52:46.554Z,100288.50
2022-09-06T02:53:48.071Z,100288.50
2022-09-06T02:54:49.579Z,100293.72
2022-09-06T02:55:51.131Z,100292.41
2022-09-06T02:56:52.767Z,100292.28
2022-09-06T02:57:54.271Z,100300.81
2022-09-06T02:58:55.790Z,100288.59
2022-09-06T02:59:57.578Z,100287.44
2022-09-06T03:00:59.192Z,100290.28
2022-09-06T03:02:00.840Z,100286.94
2022-09-06T03:03:03.299Z,100282.91
2022-09-06T03:04:04.795Z,100278.03
2022-09-06T03:05:06.515Z,100291.44
2022-09-06T03:06:08.035Z,100294.19
2022-09-06T03:07:09.559Z,100302.25
2022-09-06T03:08:11.111Z,100296.09
2022-09-06T03:09:12.594Z,100285.88
2022-09-06T03:10:14.163Z,100290.38
2022-09-06T03:11:15.759Z,100278.66
2022-09-06T03:12:17.280Z,100286.81
2022-09-06T03:13:18.959Z,100286.81
2022-09-06T03:14:20.484Z,100290.97
2022-09-06T03:15:22.009Z,100297.50
2022-09-06T03:16:23.622Z,100295.84
2022-09-06T03:17:25.164Z,100294.66
2022-09-06T03:18:27.258Z,100291.81
2022-09-06T03:19:28.903Z,100295.00
2022-09-06T03:20:35.042Z,100294.19
2022-09-06T03:21:38.418Z,100288.38
2022-09-06T03:22:39.943Z,100278.53
2022-09-06T03:23:41.442Z,100269.50
2022-09-06T03:24:42.999Z,100262.97
2022-09-06T03:25:44.667Z,100259.78
2022-09-06T03:26:46.207Z,100258.13
2022-09-06T03:27:47.947Z,100256.44
2022-09-06T03:28:50.393Z,100269.50
2022-09-06T03:29:51.921Z,100270.66
2022-09-06T03:30:53.535Z,100272.69
2022-09-06T03:31:55.068Z,100280.41
2022-09-06T03:32:58.909Z,100276.25
2022-09-06T03:34:02.298Z,100277.06
2022-09-06T03:35:03.881Z,100283.97
2022-09-06T03:36:05.462Z,100277.31
2022-09-06T03:37:07.082Z,100278.16
2022-09-06T03:38:08.659Z,100288.72
2022-09-06T03:39:10.175Z,100284.38
2022-09-06T03:40:11.730Z,100288.28
2022-09-06T03:41:13.392Z,100283.75
2022-09-06T03:42:14.886Z,100284.56
2022-09-06T03:43:17.166Z,100292.13
2022-09-06T03:44:18.692Z,100281.94
2022-09-06T03:45:20.191Z,100281.44
2022-09-06T03:46:21.737Z,100286.28
2022-09-06T03:47:23.334Z,100278.09
2022-09-06T03:48:25.108Z,100271.13
2022-09-06T03:49:26.636Z,100273.13
2022-09-06T03:50:28.117Z,100272.66
2022-09-06T03:51:29.607Z,100267.78
2022-09-06T03:52:31.237Z,100264.81
2022-09-06T03:53:32.767Z,100268.03
2022-09-06T03:54:34.420Z,100266.22
2022-09-06T03:55:35.903Z,100271.06
2022-09-06T03:56:37.387Z,100271.41
2022-09-06T03:57:39.019Z,100273.09
2022-09-06T03:58:40.548Z,100274.75
2022-09-06T03:59:42.043Z,100268.69
2022-09-06T04:00:43.740Z,100277.22
2022-09-06T04:01:45.370Z,100277.72
2022-09-06T04:02:47.030Z,100273.72
2022-09-06T04:03:48.565Z,100271.69
2022-09-06T04:04:50.095Z,100260.31
2022-09-06T04:05:51.863Z,100266.84
2022-09-06T04:06:53.351Z,100259.13
2022-09-06T04:07:54.907Z,100260.81
2022-09-06T04:08:56.386Z,100261.97
2022-09-06T04:09:57.923Z,100255.47
2022-09-06T04:10:59.546Z,100261.97
2022-09-06T04:12:01.022Z,100259.13
2022-09-06T04:13:02.563Z,100265.66
2022-09-06T04:14:04.146Z,100271.69
2022-09-06T04:15:06.198Z,100277.22
2022-09-06T04:16:07.827Z,100279.25
2022-09-06T04:17:09.447Z,100283.28
2022-09-06T04:18:11.209Z,100270.25
2022-09-06T04:19:12.699Z,100271.06
2022-09-06T04:20:14.657Z,100268.56
2022-09-06T04:21:16.162Z,100266.91
2022-09-06T04:22:17.647Z,100267.75
2022-09-06T04:23:19.457Z,100266.91
2022-09-06T04:24:20.956Z,100264.06
2022-09-06T04:25:22.438Z,100270.94
2022-09-06T04:26:23.949Z,100268.09
2022-09-06T04:27:25.476Z,100273.31
2022-09-06T04:28:27.306Z,100274.97
2022-09-06T04:29:28.885Z,100267.63
2022-09-06T04:30:30.425Z,100270.47
2022-09-06T04:31:31.983Z,100272.47
2022-09-06T04:32:33.524Z,100274.00
2022-09-06T04:33:35.520Z,100273.16
2022-09-06T04:34:37.004Z,100269.00
2022-09-06T04:35:38.491Z,100276.19
2022-09-06T04:36:40.055Z,100280.56
2022-09-06T04:37:41.605Z,100283.97
2022-09-06T04:38:43.578Z,100282.88
2022-09-06T04:39:45.139Z,100272.41
2022-09-06T04:40:46.668Z,100280.78
2022-09-06T04:41:48.415Z,100281.50
2022-09-06T04:42:49.895Z,100283.47
2022-09-06T04:43:51.431Z,100283.16
2022-09-06T04:44:52.959Z,100279.13
2022-09-06T04:45:54.538Z,100268.59
2022-09-06T04:47:07.430Z,100265.75
2022-09-06T04:48:10.964Z,100277.59
2022-09-06T04:49:12.505Z,100271.91
2022-09-06T04:50:14.059Z,100282.44
2022-09-06T04:51:15.542Z,100279.25
2022-09-06T04:52:17.139Z,100277.59
2022-09-06T04:53:18.811Z,100272.75
2022-09-06T04:54:20.299Z,100284.94
2022-09-06T04:55:21.818Z,100277.59
2022-09-06T04:56:23.799Z,100278.44
2022-09-06T04:57:25.274Z,100280.44
2022-09-06T04:58:26.894Z,100279.97
2022-09-06T04:59:28.411Z,100279.13
2022-09-06T05:00:30.487Z,100272.63
2022-09-06T05:01:32.051Z,100273.78
2022-09-06T05:02:33.715Z,100276.63
2022-09-06T05:03:35.360Z,100277.78
2022-09-06T05:04:36.875Z,100265.94
2022-09-06T05:05:38.355Z,100274.81
2022-09-06T05:06:41.627Z,100272.81
2022-09-06T05:07:43.117Z,100278.00
2022-09-06T05:08:44.616Z,100271.84
2022-09-06T05:09:46.157Z,100277.88
2022-09-06T05:10:50.877Z,100277.03
2022-09-06T05:11:52.353Z,100284.38
2022-09-06T05:12:54.131Z,100285.22
2022-09-06T05:13:55.656Z,100278.69
2022-09-06T05:14:57.190Z,100277.53
2022-09-06T05:16:02.164Z,100275.50
2022-09-06T05:17:03.758Z,100281.19
2022-09-06T05:18:06.627Z,100276.34
2022-09-06T05:19:08.132Z,100287.72
2022-09-06T05:20:10.531Z,100282.03
2022-09-06T05:21:12.056Z,100274.69
2022-09-06T05:22:13.554Z,100281.19
2022-09-06T05:23:15.031Z,100274.69
2022-09-06T05:24:16.546Z,100284.03
2022-09-06T05:25:18.050Z,100276.34
2022-09-06T05:26:19.614Z,100280.38
2022-09-06T05:27:21.123Z,100286.53
2022-09-06T05:28:23.197Z,100283.69
2022-09-06T05:29:28.735Z,100282.84
2022-09-06T05:30:31.968Z,100283.69
2022-09-06T05:31:33.853Z,100278.84
2022-09-06T05:32:35.468Z,100285.34
2022-09-06T05:33:37.092Z,100285.34
2022-09-06T05:34:38.625Z,100292.34
2022-09-06T05:35:40.192Z,100283.00
2022-09-06T05:36:42.063Z,100287.50
2022-09-06T05:37:43.619Z,100296.03
2022-09-06T05:38:45.135Z,100302.22
2022-09-06T05:39:46.832Z,100296.53
2022-09-06T05:40:48.359Z,100298.69
2022-09-06T05:41:49.867Z,100308.03
2022-09-06T05:42:51.439Z,100308.88
2022-09-06T05:43:53.012Z,100311.84
2022-09-06T05:44:54.493Z,100313.03
2022-09-06T05:45:56.100Z,100311.84
2022-09-06T05:46:57.635Z,100315.16
2022-09-06T05:47:59.138Z,100314.81
2022-09-06T05:49:04.744Z,100313.66
2022-09-06T05:50:07.032Z,100316.97
2022-09-06T05:51:09.518Z,100326.00
2022-09-06T05:52:11.027Z,100324.81
2022-09-06T05:53:13.094Z,100323.63
2022-09-06T05:54:14.609Z,100326.97
2022-09-06T05:55:16.191Z,100319.75
2022-09-06T05:56:17.803Z,100327.91
2022-09-06T05:57:19.315Z,100330.44
2022-09-06T05:58:20.816Z,100328.09
2022-09-06T05:59:22.343Z,100328.91
2022-09-06T06:00:23.852Z,100329.38
2022-09-06T06:01:28.104Z,100334.75
2022-09-06T06:02:29.676Z,100334.41
2022-09-06T06:03:31.166Z,100340.56
2022-09-06T06:04:32.764Z,100341.91
2022-09-06T06:05:34.271Z,100317.72
2022-09-06T06:06:35.759Z,100341.22
2022-09-06T06:07:37.322Z,100346.56
2022-09-06T06:08:39.764Z,100344.19
2022-09-06T06:09:41.486Z,100341.81
2022-09-06T06:10:43.056Z,100338.97
2022-09-06T06:11:44.653Z,100336.00
2022-09-06T06:12:46.176Z,100346.81
2022-09-06T06:13:47.670Z,100344.47
2022-09-06T06:14:49.175Z,100342.94
2022-09-06T06:15:50.723Z,100338.91
2022-09-06T06:16:52.708Z,100344.25
2022-09-06T06:17:54.348Z,100344.72
2022-09-06T06:18:56.028Z,100342.38
2022-09-06T06:19:58.318Z,100349.72
2022-09-06T06:21:18.714Z,100343.34
2022-09-06T06:22:20.279Z,100338.13
2022-09-06T06:23:22.267Z,100337.78
2022-09-06T06:24:23.935Z,100341.09
2022-09-06T06:25:26.272Z,100339.56
2022-09-06T06:26:28.443Z,100340.03
2022-09-06T06:27:30.038Z,100338.06
2022-09-06T06:28:32.195Z,100346.25
2022-09-06T06:29:33.874Z,100342.22
2022-09-06T06:30:35.999Z,100339.84
2022-09-06T06:31:37.860Z,100340.69
2022-09-06T06:32:40.432Z,100344.00
2022-09-06T06:33:42.613Z,100348.16
2022-09-06T06:34:44.176Z,100349.47
2022-09-06T06:36:05.084Z,100350.78
2022-09-06T06:37:06.566Z,100354.94
2022-09-06T06:38:08.065Z,100352.22
2022-09-06T06:39:09.681Z,100360.06
2022-09-06T06:40:11.616Z,100360.56
2022-09-06T06:41:13.822Z,100358.69
2022-09-06T06:42:16.054Z,100358.00
2022-09-06T06:43:26.378Z,100370.31
2022-09-06T06:44:28.377Z,100363.94
2022-09-06T06:45:29.982Z,100375.47
2022-09-06T06:46:32.555Z,100373.91
2022-09-06T06:47:34.072Z,100369.53
2022-09-06T06:48:35.978Z,100372.53
2022-09-06T06:49:37.465Z,100369.31
2022-09-06T06:50:38.992Z,100378.34
2022-09-06T06:51:41.383Z,100373.59
2022-09-06T06:52:42.890Z,100372.88
2022-09-06T06:53:44.967Z,100365.66
2022-09-06T06:54:46.728Z,100366.13
2022-09-06T06:55:48.525Z,100372.78
2022-09-06T06:56:50.077Z,100373.25
2022-09-06T06:57:51.679Z,100378.28
2022-09-06T06:58:54.592Z,100373.03
2022-09-06T06:59:56.128Z,100379.22
2022-09-06T07:00:57.735Z,100376.00
2022-09-06T07:01:59.517Z,100371.13
2022-09-06T07:03:01.287Z,100377.66
2022-09-06T07:04:03.294Z,100368.28
2022-09-06T07:07:49.502Z,100370.31
2022-09-06T07:08:51.051Z,100373.97
2022-09-06T07:11:14.731Z,100379.31
2022-09-06T07:12:16.232Z,100371.25
2022-09-06T07:13:17.717Z,100374.09
2022-09-06T07:14:19.249Z,100375.44
2022-09-06T07:15:20.738Z,100382.78
2022-09-06T07:16:23.024Z,100368.19
2022-09-06T07:17:24.539Z,100373.88
2022-09-06T07:18:26.014Z,100371.88
2022-09-06T07:22:13.624Z,100374.44
2022-09-06T07:24:36.859Z,100346.94
2022-09-06T07:25:38.403Z,100372.91
2022-09-06T07:26:40.420Z,100373.06
2022-09-06T07:27:47.508Z,100374.72
2022-09-06T07:28:56.675Z,100370.66
2022-09-06T07:29:58.191Z,100366.88
2022-09-06T07:31:00.621Z,100365.19
2022-09-06T07:33:10.758Z,100368.75
2022-09-06T07:34:13.127Z,100363.78
2022-09-06T07:35:14.711Z,100364.25
2022-09-06T07:36:16.277Z,100375.44
2022-09-06T07:37:17.827Z,100373.06
2022-09-06T07:38:19.312Z,100371.97
2022-09-06T07:39:20.811Z,100370.41
2022-09-06T07:40:22.798Z,100368.06
2022-09-06T07:41:24.329Z,100380.66
2022-09-06T07:42:25.830Z,100379.94
2022-09-06T07:43:27.718Z,100378.75
2022-09-06T07:44:29.585Z,100381.59
2022-09-06T07:45:31.077Z,100376.38
2022-09-06T07:46:32.679Z,100376.00
2022-09-06T07:48:55.731Z,100379.69
2022-09-06T07:51:19.619Z,100378.78
2022-09-06T07:53:43.078Z,100379.38
2022-09-06T07:54:45.639Z,100385.31
2022-09-06T07:55:47.202Z,100383.66
2022-09-06T07:56:48.728Z,100372.84
2022-09-06T07:57:50.216Z,100379.63
2022-09-06T07:58:51.935Z,100380.16
2022-09-06T07:59:53.470Z,100383.84
2022-09-06T08:00:55.021Z,100388.16
2022-09-06T08:01:56.654Z,100391.13
2022-09-06T08:02:58.192Z,100379.25
2022-09-06T08:04:02.942Z,100383.41
2022-09-06T08:06:26.527Z,100377.81
2022-09-06T08:07:43.318Z,100375.94
2022-09-06T08:09:00.918Z,100382.09
2022-09-06T08:10:03.184Z,100375.94
2022-09-06T08:11:07.470Z,100378.06
2022-09-06T08:12:09.196Z,100375.22
2022-09-06T08:13:10.661Z,100378.53
2022-09-06T08:14:12.162Z,100374.97
2022-09-06T08:15:13.670Z,100376.41
2022-09-06T08:16:16.844Z,100372.81
2022-09-06T08:17:18.510Z,100376.97
2022-09-06T08:18:20.052Z,100371.38
2022-09-06T08:19:21.559Z,100377.22
2022-09-06T08:20:23.106Z,100369.97
2022-09-06T08:21:25.352Z,100368.88
2022-09-06T08:22:26.871Z,100376.81
2022-09-06T08:23:29.180Z,100376.56
2022-09-06T08:24:31.193Z,100373.72
2022-09-06T08:25:32.722Z,100367.28
2022-09-06T08:26:34.692Z,100377.75
2022-09-06T08:27:36.278Z,100372.66
2022-09-06T08:28:37.773Z,100377.50
2022-09-06T08:29:39.912Z,100362.75
2022-09-06T08:30:41.622Z,100377.25
2022-09-06T08:31:43.665Z,100371.28
2022-09-06T08:32:45.230Z,100379.63
2022-09-06T08:33:47.741Z,100369.53
2022-09-06T08:34:49.671Z,100367.03
2022-09-06T08:36:00.346Z,100374.50
2022-09-06T08:37:01.864Z,100372.25
2022-09-06T08:38:05.331Z,100379.81
2022-09-06T08:39:07.246Z,100380.13
2022-09-06T08:40:09.016Z,100380.22
2022-09-06T08:41:11.833Z,100380.72
2022-09-06T08:42:13.437Z,100363.31
2022-09-06T08:43:16.931Z,100371.72
2022-09-06T08:45:55.645Z,100370.38
2022-09-06T08:47:04.627Z,100368.47
2022-09-06T08:48:06.322Z,100370.56
2022-09-06T08:49:08.027Z,100367.25
2022-09-06T08:50:09.637Z,100370.22
2022-09-06T08:51:11.110Z,100357.56
2022-09-06T08:52:23.521Z,100361.00
2022-09-06T08:53:25.027Z,100359.81
2022-09-06T08:54:29.553Z,100360.00
2022-09-06T08:55:35.551Z,100356.03
2022-09-06T08:56:42.707Z,100360.28
2022-09-06T08:57:44.199Z,100348.94
2022-09-06T08:59:06.621Z,100347.00
2022-09-06T09:00:11.045Z,100343.88
2022-09-06T09:01:14.493Z,100351.31
2022-09-06T09:02:17.252Z,100344.97
2022-09-06T09:03:20.123Z,100344.81
2022-09-06T09:04:22.210Z,100343.75
2022-09-06T09:05:23.668Z,100353.34
2022-09-06T09:06:25.366Z,100343.94
2022-09-06T09:07:32.876Z,100348.91
2022-09-06T09:08:37.437Z,100342.81
2022-09-06T09:09:38.971Z,100346.94
2022-09-06T09:10:41.917Z,100348.28
2022-09-06T09:11:43.837Z,100335.56
2022-09-06T09:12:48.313Z,100336.47
2022-09-06T09:13:59.181Z,100346.81
2022-09-06T09:15:05.941Z,100339.63
2022-09-06T09:16:07.510Z,100343.38
2022-09-06T09:17:12.867Z,100347.16
2022-09-06T09:18:15.291Z,100334.66
2022-09-06T09:19:18.017Z,100340.22
2022-09-06T09:20:20.159Z,100342.03
2022-09-06T09:21:23.917Z,100335.72
2022-09-06T09:22:28.442Z,100328.91
2022-09-06T09:23:30.988Z,100333.13
2022-09-06T09:24:32.498Z,100330.78
2022-09-06T09:25:34.110Z,100331.31
2022-09-06T09:26:48.187Z,100322.41
2022-09-06T09:27:57.262Z,100324.25
2022-09-06T09:29:01.860Z,100319.94
2022-09-06T09:31:33.892Z,100326.59
2022-09-06T09:32:35.479Z,100321.16
2022-09-06T09:33:38.971Z,100318.41
2022-09-06T09:34:40.503Z,100318.25
2022-09-06T09:35:42.217Z,100316.00
2022-09-06T09:38:11.695Z,100315.50
2022-09-06T09:39:13.630Z,100311.44
2022-09-06T09:40:15.224Z,100312.41
2022-09-06T09:41:29.058Z,100307.72
2022-09-06T09:42:37.084Z,100310.47
2022-09-06T09:43:39.798Z,100299.09
2022-09-06T09:44:44.319Z,100298.28
2022-09-06T09:45:45.875Z,100305.25
2022-09-06T09:46:47.467Z,100303.69
2022-09-06T09:47:48.956Z,100307.91
2022-09-06T09:49:05.799Z,100302.16
2022-09-06T09:50:21.203Z,100296.53
2022-09-06T09:51:27.059Z,100295.03
2022-09-06T09:52:29.875Z,100293.94
2022-09-06T09:53:31.338Z,100294.53
2022-09-06T09:54:35.058Z,100295.44
2022-09-06T09:55:36.567Z,100286.47
2022-09-06T09:56:38.008Z,100289.06
2022-09-06T09:57:46.132Z,100290.47
2022-09-06T09:58:47.593Z,100289.34
2022-09-06T09:59:52.926Z,100288.16
2022-09-06T10:01:16.599Z,100287.78
2022-09-06T10:02:18.130Z,100284.13
2022-09-06T10:03:20.133Z,100284.63
2022-09-06T10:04:44.180Z,100274.78
2022-09-06T10:06:02.068Z,100280.59
2022-09-06T10:07:22.959Z,100283.09
2022-09-06T10:08:25.046Z,100279.38
2022-09-06T10:09:33.718Z,100284.78
2022-09-06T10:10:38.380Z,100274.50
2022-09-06T10:11:41.215Z,100273.69
2022-09-06T10:12:42.727Z,100272.50
2022-09-06T10:13:44.302Z,100267.94
2022-09-06T10:14:46.837Z,100266.69
2022-09-06T10:15:48.927Z,100270.38
2022-09-06T10:16:51.706Z,100267.88
2022-09-06T10:17:53.245Z,100275.28
2022-09-06T10:18:54.715Z,100279.41
2022-09-06T10:19:56.197Z,100283.56
2022-09-06T10:20:59.454Z,100274.47
2022-09-06T10:22:02.887Z,100274.81
2022-09-06T10:23:04.814Z,100269.38
2022-09-06T10:25:41.076Z,100268.84
2022-09-06T10:26:43.610Z,100277.03
2022-09-06T10:28:10.344Z,100280.44
2022-09-06T10:29:14.232Z,100270.06
2022-09-06T10:30:15.746Z,100278.25
2022-09-06T10:31:36.593Z,100267.06
2022-09-06T10:32:42.595Z,100271.47
2022-09-06T10:34:02.982Z,100270.16
2022-09-06T10:35:13.543Z,100264.75
2022-09-06T10:36:15.982Z,100259.28
2022-09-06T10:37:29.143Z,100264.19
2022-09-06T10:38:36.350Z,100266.69
2022-09-06T10:39:43.940Z,100253.94
2022-09-06T10:41:01.437Z,100256.06
2022-09-06T10:42:09.102Z,100259.69
2022-09-06T10:43:13.458Z,100251.34
2022-09-06T10:44:33.788Z,100259.94
2022-09-06T10:45:35.252Z,100261.00
2022-09-06T10:46:37.198Z,100256.72
2022-09-06T10:47:57.177Z,100248.31
2022-09-06T10:48:58.736Z,100252.69
2022-09-06T10:50:00.233Z,100252.56
2022-09-06T10:51:05.311Z,100249.94
2022-09-06T10:52:07.642Z,100239.53
2022-09-06T10:53:11.806Z,100251.13
2022-09-06T10:54:16.171Z,100246.91
2022-09-06T10:55:17.760Z,100247.22
2022-09-06T10:56:27.277Z,100245.44
2022-09-06T11:00:21.749Z,100248.66
2022-09-06T11:01:25.686Z,100236.44
2022-09-06T11:04:23.658Z,100244.44
2022-09-06T11:05:39.426Z,100235.75
2022-09-06T11:06:43.942Z,100240.59
2022-09-06T11:09:19.006Z,100232.28
2022-09-06T11:10:22.025Z,100230.13
2022-09-06T11:11:24.411Z,100229.28
2022-09-06T11:12:46.345Z,100233.38
2022-09-06T11:13:47.837Z,100235.84
2022-09-06T11:14:49.307Z,100230.50
2022-09-06T11:16:03.429Z,100233.59
2022-09-06T11:17:06.954Z,100236.44
2022-09-06T11:18:18.953Z,100229.00
2022-09-06T11:19:25.009Z,100231.88
2022-09-06T11:20:33.775Z,100232.44
2022-09-06T11:21:37.315Z,100229.97
2022-09-06T11:22:57.702Z,100229.13
2022-09-06T11:24:11.666Z,100236.75
2022-09-06T11:25:31.962Z,100232.69
2022-09-06T11:26:34.641Z,100228.69
2022-09-06T11:27:36.942Z,100226.66
2022-09-06T11:28:40.232Z,100229.56
2022-09-06T11:29:42.610Z,100216.88
2022-09-06T11:30:45.011Z,100220.69
2022-09-06T11:33:24.286Z,100219.91
2022-09-06T11:34:27.278Z,100215.47
2022-09-06T11:35:30.226Z,100222.13
2022-09-06T11:36:35.867Z,100216.75
2022-09-06T11:37:39.573Z,100214.25
2022-09-06T11:38:41.124Z,100220.47
2022-09-06T11:41:05.586Z,100213.81
2022-09-06T11:42:27.812Z,100215.47
2022-09-06T11:43:45.816Z,100210.06
2022-09-06T11:44:50.312Z,100210.88
2022-09-06T11:45:52.278Z,100207.19
2022-09-06T11:46:56.659Z,100212.56
2022-09-06T11:47:58.176Z,100205.13
2022-09-06T11:49:00.172Z,100199.34
2022-09-06T11:50:20.164Z,100205.97
2022-09-06T11:51:54.114Z,100208.44
2022-09-06T11:53:03.003Z,100208.47
2022-09-06T11:54:16.344Z,100204.75
2022-09-06T11:55:21.036Z,100212.56
2022-09-06T11:56:40.913Z,100210.16
2022-09-06T11:57:42.436Z,100211.00
2022-09-06T11:59:12.805Z,100207.31
2022-09-06T12:00:18.420Z,100204.03
2022-09-06T12:01:20.762Z,100207.78
2022-09-06T12:02:29.812Z,100207.81
2022-09-06T12:04:06.531Z,100194.22
2022-09-06T12:05:10.050Z,100202.13
2022-09-06T12:06:17.730Z,100197.97
2022-09-06T12:07:19.203Z,100197.97
2022-09-06T12:08:25.070Z,100202.16
2022-09-06T12:09:46.896Z,100199.31
2022-09-06T12:11:04.783Z,100188.97
2022-09-06T12:12:06.387Z,100193.09
2022-09-06T12:13:26.262Z,100197.31
2022-09-06T12:14:35.869Z,100189.03
2022-09-06T12:15:46.580Z,100184.91
2022-09-06T12:16:57.186Z,100185.69
2022-09-06T12:17:59.074Z,100191.91
2022-09-06T12:19:00.788Z,100183.22
2022-09-06T12:20:08.733Z,100189.00
2022-09-06T12:21:10.547Z,100179.13
2022-09-06T12:22:30.071Z,100178.25
2022-09-06T12:23:34.562Z,100180.72
2022-09-06T12:24:36.059Z,100180.00
2022-09-06T12:25:37.526Z,100184.59
2022-09-06T12:26:55.741Z,100183.41
2022-09-06T12:27:57.949Z,100178.88
2022-09-06T12:29:00.036Z,100176.84
2022-09-06T12:30:08.946Z,100171.44
2022-09-06T12:31:23.540Z,100172.66
2022-09-06T12:32:26.419Z,100170.19
2022-09-06T12:33:36.302Z,100167.69
2022-09-06T12:34:37.806Z,100175.97
2022-09-06T12:37:01.339Z,100173.47
2022-09-06T12:38:03.806Z,100167.69
2022-09-06T12:39:08.946Z,100178.44
2022-09-06T12:40:14.861Z,100171.81
2022-09-06T12:41:16.360Z,100167.66